sensor_id;sensor_type;location;lat;lon;timestamp;P1;P2;P0
76238;PMS7003;65043;48.392;-4.472;2024-03-08T00:00:40;4.00;4.00;3.00
76238;PMS7003;65043;48.392;-4.472;2024-03-08T00:03:09;6.50;4.75;4.00
76238;PMS7003;65043;48.392;-4.472;2024-03-08T00:05:35;8.75;6.75;4.75
76238;PMS7003;65043;48.392;-4.472;2024-03-08T00:08:01;8.00;6.00;4.00
76238;PMS7003;65043;48.392;-4.472;2024-03-08T00:10:27;8.25;7.00;5.00
76238;PMS7003;65043;48.392;-4.472;2024-03-08T00:12:53;7.25;5.00;3.25
76238;PMS7003;65043;48.392;-4.472;2024-03-08T00:15:19;6.50;5.50;4.00
76238;PMS7003;65043;48.392;-4.472;2024-03-08T00:17:45;6.75;6.00;5.00
76238;PMS7003;65043;48.392;-4.472;2024-03-08T00:20:11;7.50;6.00;4.50
76238;PMS7003;65043;48.392;-4.472;2024-03-08T00:22:38;7.00;5.50;4.00
76238;PMS7003;65043;48.392;-4.472;2024-03-08T00:25:04;6.25;4.50;4.00
76238;PMS7003;65043;48.392;-4.472;2024-03-08T00:27:30;8.00;5.00;4.00
76238;PMS7003;65043;48.392;-4.472;2024-03-08T00:29:59;8.50;7.25;4.00
76238;PMS7003;65043;48.392;-4.472;2024-03-08T00:32:25;6.50;6.00;4.00
76238;PMS7003;65043;48.392;-4.472;2024-03-08T00:34:52;8.00;5.25;4.00
76238;PMS7003;65043;48.392;-4.472;2024-03-08T00:37:18;5.00;5.00;4.00
76238;PMS7003;65043;48.392;-4.472;2024-03-08T00:39:44;7.00;5.50;4.00
76238;PMS7003;65043;48.392;-4.472;2024-03-08T00:42:09;7.50;7.50;4.00
76238;PMS7003;65043;48.392;-4.472;2024-03-08T00:44:35;6.75;6.25;5.00
76238;PMS7003;65043;48.392;-4.472;2024-03-08T00:47:00;6.75;5.25;4.00
76238;PMS7003;65043;48.392;-4.472;2024-03-08T00:49:27;6.50;6.00;4.00
76238;PMS7003;65043;48.392;-4.472;2024-03-08T00:51:52;6.00;6.00;3.50
76238;PMS7003;65043;48.392;-4.472;2024-03-08T00:54:18;9.50;5.75;5.00
76238;PMS7003;65043;48.392;-4.472;2024-03-08T00:56:43;8.50;5.00;4.75
76238;PMS7003;65043;48.392;-4.472;2024-03-08T00:59:11;7.00;6.50;4.00
76238;PMS7003;65043;48.392;-4.472;2024-03-08T01:01:36;7.00;7.00;6.00
76238;PMS7003;65043;48.392;-4.472;2024-03-08T01:04:01;7.00;6.00;4.50
76238;PMS7003;65043;48.392;-4.472;2024-03-08T01:06:27;8.00;8.00;4.00
76238;PMS7003;65043;48.392;-4.472;2024-03-08T01:08:53;7.75;7.50;4.75
76238;PMS7003;65043;48.392;-4.472;2024-03-08T01:11:18;7.75;7.00;5.00
76238;PMS7003;65043;48.392;-4.472;2024-03-08T01:13:44;7.25;7.25;5.25
76238;PMS7003;65043;48.392;-4.472;2024-03-08T01:16:12;5.50;5.50;4.00
76238;PMS7003;65043;48.392;-4.472;2024-03-08T01:18:38;6.75;6.75;4.75
76238;PMS7003;65043;48.392;-4.472;2024-03-08T01:21:03;5.25;5.25;4.25
76238;PMS7003;65043;48.392;-4.472;2024-03-08T01:23:29;10.75;7.25;4.00
76238;PMS7003;65043;48.392;-4.472;2024-03-08T01:25:55;8.00;6.00;4.00
76238;PMS7003;65043;48.392;-4.472;2024-03-08T01:28:25;7.25;7.00;4.00
76238;PMS7003;65043;48.392;-4.472;2024-03-08T01:30:51;7.75;7.75;4.75
76238;PMS7003;65043;48.392;-4.472;2024-03-08T01:33:23;6.50;6.50;5.00
76238;PMS7003;65043;48.392;-4.472;2024-03-08T01:35:50;8.50;7.00;5.00
76238;PMS7003;65043;48.392;-4.472;2024-03-08T01:38:16;6.50;6.00;5.00
76238;PMS7003;65043;48.392;-4.472;2024-03-08T01:40:42;5.50;5.50;4.25
76238;PMS7003;65043;48.392;-4.472;2024-03-08T01:45:46;8.00;6.50;4.75
76238;PMS7003;65043;48.392;-4.472;2024-03-08T01:48:12;6.50;6.50;4.75
76238;PMS7003;65043;48.392;-4.472;2024-03-08T01:50:39;10.00;7.00;5.00
76238;PMS7003;65043;48.392;-4.472;2024-03-08T01:53:06;10.25;8.00;6.00
76238;PMS7003;65043;48.392;-4.472;2024-03-08T01:55:35;6.75;6.50;5.00
76238;PMS7003;65043;48.392;-4.472;2024-03-08T01:58:02;6.00;6.00;4.75
76238;PMS7003;65043;48.392;-4.472;2024-03-08T02:00:29;8.75;8.75;6.25
76238;PMS7003;65043;48.392;-4.472;2024-03-08T02:02:55;7.00;7.00;5.00
76238;PMS7003;65043;48.392;-4.472;2024-03-08T02:05:22;6.75;5.75;4.00
76238;PMS7003;65043;48.392;-4.472;2024-03-08T02:07:49;8.50;6.50;5.00
76238;PMS7003;65043;48.392;-4.472;2024-03-08T02:10:14;5.75;5.25;4.25
76238;PMS7003;65043;48.392;-4.472;2024-03-08T02:12:40;9.75;8.75;5.00
76238;PMS7003;65043;48.392;-4.472;2024-03-08T02:15:06;10.00;10.00;6.75
76238;PMS7003;65043;48.392;-4.472;2024-03-08T02:17:32;8.50;7.25;5.50
76238;PMS7003;65043;48.392;-4.472;2024-03-08T02:19:58;13.25;7.25;4.00
76238;PMS7003;65043;48.392;-4.472;2024-03-08T02:22:28;8.75;8.50;5.00
76238;PMS7003;65043;48.392;-4.472;2024-03-08T02:24:58;10.50;8.00;5.50
76238;PMS7003;65043;48.392;-4.472;2024-03-08T02:27:26;9.50;8.00;5.00
76238;PMS7003;65043;48.392;-4.472;2024-03-08T02:29:54;10.25;8.50;6.50
76238;PMS7003;65043;48.392;-4.472;2024-03-08T02:32:23;8.25;6.25;5.00
76238;PMS7003;65043;48.392;-4.472;2024-03-08T02:34:49;5.75;5.00;2.25
76238;PMS7003;65043;48.392;-4.472;2024-03-08T02:37:15;7.50;6.50;4.75
76238;PMS7003;65043;48.392;-4.472;2024-03-08T02:39:41;12.25;8.50;6.00
76238;PMS7003;65043;48.392;-4.472;2024-03-08T02:42:07;11.00;7.50;5.25
76238;PMS7003;65043;48.392;-4.472;2024-03-08T02:44:33;14.25;7.75;6.00
76238;PMS7003;65043;48.392;-4.472;2024-03-08T02:46:59;7.25;7.25;5.25
76238;PMS7003;65043;48.392;-4.472;2024-03-08T02:49:27;9.00;5.00;3.00
76238;PMS7003;65043;48.392;-4.472;2024-03-08T02:51:53;8.00;8.00;5.00
76238;PMS7003;65043;48.392;-4.472;2024-03-08T02:54:18;9.75;9.00;6.50
76238;PMS7003;65043;48.392;-4.472;2024-03-08T02:56:44;11.50;9.00;6.50
76238;PMS7003;65043;48.392;-4.472;2024-03-08T02:59:16;9.00;7.00;5.00
76238;PMS7003;65043;48.392;-4.472;2024-03-08T03:01:42;7.50;6.50;4.25
76238;PMS7003;65043;48.392;-4.472;2024-03-08T03:04:08;7.00;7.00;4.00
76238;PMS7003;65043;48.392;-4.472;2024-03-08T03:06:33;8.00;6.50;5.00
76238;PMS7003;65043;48.392;-4.472;2024-03-08T03:08:59;6.00;5.50;4.00
76238;PMS7003;65043;48.392;-4.472;2024-03-08T03:11:24;8.50;6.75;4.00
76238;PMS7003;65043;48.392;-4.472;2024-03-08T03:13:50;6.75;6.75;5.75
76238;PMS7003;65043;48.392;-4.472;2024-03-08T03:16:18;9.00;8.25;5.25
76238;PMS7003;65043;48.392;-4.472;2024-03-08T03:18:45;8.75;6.50;5.25
76238;PMS7003;65043;48.392;-4.472;2024-03-08T03:21:11;8.25;8.25;5.75
76238;PMS7003;65043;48.392;-4.472;2024-03-08T03:23:38;9.50;8.50;6.50
76238;PMS7003;65043;48.392;-4.472;2024-03-08T03:26:05;7.50;7.50;6.00
76238;PMS7003;65043;48.392;-4.472;2024-03-08T03:28:32;7.25;7.25;5.25
76238;PMS7003;65043;48.392;-4.472;2024-03-08T03:30:58;7.25;6.00;5.00
76238;PMS7003;65043;48.392;-4.472;2024-03-08T03:33:24;9.00;9.00;6.00
76238;PMS7003;65043;48.392;-4.472;2024-03-08T03:35:50;9.00;8.00;6.75
76238;PMS7003;65043;48.392;-4.472;2024-03-08T03:38:17;15.00;9.00;6.00
76238;PMS7003;65043;48.392;-4.472;2024-03-08T03:40:44;10.00;7.50;5.00
76238;PMS7003;65043;48.392;-4.472;2024-03-08T03:43:11;8.50;8.50;6.50
76238;PMS7003;65043;48.392;-4.472;2024-03-08T03:45:36;10.00;8.50;6.50
76238;PMS7003;65043;48.392;-4.472;2024-03-08T03:48:02;9.25;6.75;4.75
76238;PMS7003;65043;48.392;-4.472;2024-03-08T03:50:29;9.75;9.75;6.00
76238;PMS7003;65043;48.392;-4.472;2024-03-08T03:52:56;7.50;7.00;5.00
76238;PMS7003;65043;48.392;-4.472;2024-03-08T03:55:22;7.50;7.50;5.00
76238;PMS7003;65043;48.392;-4.472;2024-03-08T03:57:48;12.00;12.00;7.75
76238;PMS7003;65043;48.392;-4.472;2024-03-08T04:00:13;10.75;8.25;7.00
76238;PMS7003;65043;48.392;-4.472;2024-03-08T04:02:39;11.00;9.25;5.75
76238;PMS7003;65043;48.392;-4.472;2024-03-08T04:05:05;7.00;7.00;5.25
76238;PMS7003;65043;48.392;-4.472;2024-03-08T04:07:32;9.75;9.00;6.00
76238;PMS7003;65043;48.392;-4.472;2024-03-08T04:09:57;12.00;10.25;6.00
76238;PMS7003;65043;48.392;-4.472;2024-03-08T04:12:23;9.50;9.50;6.00
76238;PMS7003;65043;48.392;-4.472;2024-03-08T04:14:48;8.25;8.00;5.00
76238;PMS7003;65043;48.392;-4.472;2024-03-08T04:17:14;8.50;7.00;6.00
76238;PMS7003;65043;48.392;-4.472;2024-03-08T04:19:40;9.25;9.00;6.00
76238;PMS7003;65043;48.392;-4.472;2024-03-08T04:22:07;6.75;5.25;4.75
76238;PMS7003;65043;48.392;-4.472;2024-03-08T04:24:33;9.00;9.00;6.00
76238;PMS7003;65043;48.392;-4.472;2024-03-08T04:26:59;8.75;6.00;5.50
76238;PMS7003;65043;48.392;-4.472;2024-03-08T04:29:24;8.25;7.00;5.00
76238;PMS7003;65043;48.392;-4.472;2024-03-08T04:31:50;9.50;8.75;6.00
76238;PMS7003;65043;48.392;-4.472;2024-03-08T04:34:19;10.50;8.00;6.00
76238;PMS7003;65043;48.392;-4.472;2024-03-08T04:36:50;10.00;7.50;6.50
76238;PMS7003;65043;48.392;-4.472;2024-03-08T04:39:15;9.75;7.25;5.00
76238;PMS7003;65043;48.392;-4.472;2024-03-08T04:41:41;10.00;9.00;5.00
76238;PMS7003;65043;48.392;-4.472;2024-03-08T04:44:08;12.25;8.00;6.00
76238;PMS7003;65043;48.392;-4.472;2024-03-08T04:46:34;10.50;8.00;6.50
76238;PMS7003;65043;48.392;-4.472;2024-03-08T04:49:00;9.50;8.75;5.75
76238;PMS7003;65043;48.392;-4.472;2024-03-08T04:51:26;10.25;9.25;6.50
76238;PMS7003;65043;48.392;-4.472;2024-03-08T04:53:51;9.75;9.25;6.50
76238;PMS7003;65043;48.392;-4.472;2024-03-08T04:56:17;9.00;8.50;5.25
76238;PMS7003;65043;48.392;-4.472;2024-03-08T04:58:44;13.75;8.00;5.00
76238;PMS7003;65043;48.392;-4.472;2024-03-08T05:01:12;11.50;10.25;8.00
76238;PMS7003;65043;48.392;-4.472;2024-03-08T05:03:38;9.25;8.50;5.50
76238;PMS7003;65043;48.392;-4.472;2024-03-08T05:06:04;8.75;6.00;5.25
76238;PMS7003;65043;48.392;-4.472;2024-03-08T05:08:29;10.75;9.75;7.00
76238;PMS7003;65043;48.392;-4.472;2024-03-08T05:10:55;9.75;8.25;6.00
76238;PMS7003;65043;48.392;-4.472;2024-03-08T05:13:21;9.75;8.75;7.00
76238;PMS7003;65043;48.392;-4.472;2024-03-08T05:15:49;9.75;9.00;6.00
76238;PMS7003;65043;48.392;-4.472;2024-03-08T05:18:16;9.00;9.00;6.50
76238;PMS7003;65043;48.392;-4.472;2024-03-08T05:20:41;8.50;8.00;6.00
76238;PMS7003;65043;48.392;-4.472;2024-03-08T05:23:07;11.25;9.00;7.00
76238;PMS7003;65043;48.392;-4.472;2024-03-08T05:25:33;9.25;9.00;5.00
76238;PMS7003;65043;48.392;-4.472;2024-03-08T05:27:58;9.00;7.50;5.00
76238;PMS7003;65043;48.392;-4.472;2024-03-08T05:30:24;10.25;9.25;6.25
76238;PMS7003;65043;48.392;-4.472;2024-03-08T05:32:49;9.75;8.25;7.00
76238;PMS7003;65043;48.392;-4.472;2024-03-08T05:35:15;10.75;9.75;6.50
76238;PMS7003;65043;48.392;-4.472;2024-03-08T05:37:41;12.75;9.50;7.00
76238;PMS7003;65043;48.392;-4.472;2024-03-08T05:40:07;13.50;10.50;7.25
76238;PMS7003;65043;48.392;-4.472;2024-03-08T05:42:36;9.25;8.25;6.00
76238;PMS7003;65043;48.392;-4.472;2024-03-08T05:45:02;11.25;8.50;5.75
76238;PMS7003;65043;48.392;-4.472;2024-03-08T05:47:35;8.50;8.50;7.00
76238;PMS7003;65043;48.392;-4.472;2024-03-08T05:50:00;8.00;8.00;6.00
76238;PMS7003;65043;48.392;-4.472;2024-03-08T05:52:26;8.25;7.75;6.00
76238;PMS7003;65043;48.392;-4.472;2024-03-08T05:54:52;7.50;6.75;6.00
76238;PMS7003;65043;48.392;-4.472;2024-03-08T05:57:17;10.50;10.50;6.25
76238;PMS7003;65043;48.392;-4.472;2024-03-08T05:59:43;7.25;6.75;5.75
76238;PMS7003;65043;48.392;-4.472;2024-03-08T06:02:08;11.25;10.50;6.00
76238;PMS7003;65043;48.392;-4.472;2024-03-08T06:04:36;13.75;11.00;8.00
76238;PMS7003;65043;48.392;-4.472;2024-03-08T06:07:01;14.00;12.75;9.00
76238;PMS7003;65043;48.392;-4.472;2024-03-08T06:09:28;10.00;8.00;5.50
76238;PMS7003;65043;48.392;-4.472;2024-03-08T06:11:54;9.50;9.00;7.00
76238;PMS7003;65043;48.392;-4.472;2024-03-08T06:14:20;13.25;10.75;7.00
76238;PMS7003;65043;48.392;-4.472;2024-03-08T06:16:46;11.75;9.50;5.75
76238;PMS7003;65043;48.392;-4.472;2024-03-08T06:19:12;14.50;11.75;7.00
76238;PMS7003;65043;48.392;-4.472;2024-03-08T06:21:38;9.00;9.00;7.00
76238;PMS7003;65043;48.392;-4.472;2024-03-08T06:24:04;10.50;8.50;7.00
76238;PMS7003;65043;48.392;-4.472;2024-03-08T06:26:29;14.50;13.75;7.00
76238;PMS7003;65043;48.392;-4.472;2024-03-08T06:28:55;66.25;49.75;29.25
76238;PMS7003;65043;48.392;-4.472;2024-03-08T06:31:21;48.25;36.50;24.00
76238;PMS7003;65043;48.392;-4.472;2024-03-08T06:33:47;53.50;41.25;26.00
76238;PMS7003;65043;48.392;-4.472;2024-03-08T06:36:18;53.00;42.25;26.00
76238;PMS7003;65043;48.392;-4.472;2024-03-08T06:38:46;31.75;27.25;16.50
76238;PMS7003;65043;48.392;-4.472;2024-03-08T06:41:11;18.50;16.25;10.50
76238;PMS7003;65043;48.392;-4.472;2024-03-08T06:43:43;15.25;13.25;8.25
76238;PMS7003;65043;48.392;-4.472;2024-03-08T06:46:09;17.75;13.50;8.25
76238;PMS7003;65043;48.392;-4.472;2024-03-08T06:48:35;13.00;9.25;7.00
76238;PMS7003;65043;48.392;-4.472;2024-03-08T06:51:02;12.25;9.50;6.00
76238;PMS7003;65043;48.392;-4.472;2024-03-08T06:53:28;10.50;10.00;6.00
76238;PMS7003;65043;48.392;-4.472;2024-03-08T06:55:55;13.50;10.25;7.50
76238;PMS7003;65043;48.392;-4.472;2024-03-08T06:58:22;11.75;10.75;7.00
76238;PMS7003;65043;48.392;-4.472;2024-03-08T07:00:48;13.25;8.50;6.00
76238;PMS7003;65043;48.392;-4.472;2024-03-08T07:03:17;11.50;8.50;6.25
76238;PMS7003;65043;48.392;-4.472;2024-03-08T07:05:43;10.25;8.00;6.50
76238;PMS7003;65043;48.392;-4.472;2024-03-08T07:08:08;11.00;10.00;7.00
76238;PMS7003;65043;48.392;-4.472;2024-03-08T07:10:34;12.00;10.50;7.50
76238;PMS7003;65043;48.392;-4.472;2024-03-08T07:13:00;8.50;6.75;6.00
76238;PMS7003;65043;48.392;-4.472;2024-03-08T07:15:27;9.25;9.00;6.00
76238;PMS7003;65043;48.392;-4.472;2024-03-08T07:17:53;11.00;9.50;7.00
76238;PMS7003;65043;48.392;-4.472;2024-03-08T07:20:19;11.00;10.25;6.00
76238;PMS7003;65043;48.392;-4.472;2024-03-08T07:22:44;13.00;12.00;7.00
76238;PMS7003;65043;48.392;-4.472;2024-03-08T07:25:13;8.75;8.75;7.00
76238;PMS7003;65043;48.392;-4.472;2024-03-08T07:27:54;8.25;8.00;7.00
76238;PMS7003;65043;48.392;-4.472;2024-03-08T07:30:21;11.25;10.25;7.00
76238;PMS7003;65043;48.392;-4.472;2024-03-08T07:33:09;8.25;8.00;5.25
76238;PMS7003;65043;48.392;-4.472;2024-03-08T07:35:38;8.75;8.00;5.00
76238;PMS7003;65043;48.392;-4.472;2024-03-08T07:38:07;10.25;9.25;7.50
76238;PMS7003;65043;48.392;-4.472;2024-03-08T07:40:40;9.00;8.00;6.50
76238;PMS7003;65043;48.392;-4.472;2024-03-08T07:43:09;12.25;11.25;8.00
76238;PMS7003;65043;48.392;-4.472;2024-03-08T07:45:36;11.75;10.00;7.50
76238;PMS7003;65043;48.392;-4.472;2024-03-08T07:48:02;64.50;46.75;29.25
76238;PMS7003;65043;48.392;-4.472;2024-03-08T07:50:28;68.25;51.00;30.50
76238;PMS7003;65043;48.392;-4.472;2024-03-08T07:52:54;77.00;54.50;33.25
76238;PMS7003;65043;48.392;-4.472;2024-03-08T07:55:21;69.75;54.25;34.00
76238;PMS7003;65043;48.392;-4.472;2024-03-08T07:57:49;26.00;22.00;13.50
76238;PMS7003;65043;48.392;-4.472;2024-03-08T08:00:15;23.00;19.50;13.00
76238;PMS7003;65043;48.392;-4.472;2024-03-08T08:02:43;14.50;14.25;9.50
76238;PMS7003;65043;48.392;-4.472;2024-03-08T08:05:12;11.25;11.25;7.50
76238;PMS7003;65043;48.392;-4.472;2024-03-08T08:07:39;10.00;9.50;6.00
76238;PMS7003;65043;48.392;-4.472;2024-03-08T08:10:08;11.25;8.25;7.00
76238;PMS7003;65043;48.392;-4.472;2024-03-08T08:12:40;12.75;9.00;6.50
76238;PMS7003;65043;48.392;-4.472;2024-03-08T08:15:07;10.00;9.75;5.00
76238;PMS7003;65043;48.392;-4.472;2024-03-08T08:17:33;12.50;10.25;7.00
76238;PMS7003;65043;48.392;-4.472;2024-03-08T08:19:59;12.50;10.00;6.50
76238;PMS7003;65043;48.392;-4.472;2024-03-08T08:22:25;14.50;11.00;7.00
76238;PMS7003;65043;48.392;-4.472;2024-03-08T08:24:50;10.25;9.50;6.00
76238;PMS7003;65043;48.392;-4.472;2024-03-08T08:27:17;12.75;11.00;7.00
76238;PMS7003;65043;48.392;-4.472;2024-03-08T08:29:43;9.50;9.00;7.25
76238;PMS7003;65043;48.392;-4.472;2024-03-08T08:32:11;11.25;9.75;6.25
76238;PMS7003;65043;48.392;-4.472;2024-03-08T08:34:56;10.25;10.25;7.00
76238;PMS7003;65043;48.392;-4.472;2024-03-08T08:37:31;10.25;9.75;6.50
76238;PMS7003;65043;48.392;-4.472;2024-03-08T08:39:59;9.50;9.25;7.00
76238;PMS7003;65043;48.392;-4.472;2024-03-08T08:42:30;8.75;7.50;5.00
76238;PMS7003;65043;48.392;-4.472;2024-03-08T08:44:57;11.00;11.00;6.00
76238;PMS7003;65043;48.392;-4.472;2024-03-08T08:47:22;8.75;7.50;6.00
76238;PMS7003;65043;48.392;-4.472;2024-03-08T08:49:48;9.00;9.00;7.00
76238;PMS7003;65043;48.392;-4.472;2024-03-08T08:52:15;9.75;8.50;6.00
76238;PMS7003;65043;48.392;-4.472;2024-03-08T08:54:41;16.50;13.00;8.00
76238;PMS7003;65043;48.392;-4.472;2024-03-08T08:57:07;10.75;6.50;5.50
76238;PMS7003;65043;48.392;-4.472;2024-03-08T08:59:33;8.25;8.25;6.00
76238;PMS7003;65043;48.392;-4.472;2024-03-08T09:02:01;11.75;10.75;7.00
76238;PMS7003;65043;48.392;-4.472;2024-03-08T09:04:28;12.75;11.00;7.25
76238;PMS7003;65043;48.392;-4.472;2024-03-08T09:06:54;9.50;9.50;6.25
76238;PMS7003;65043;48.392;-4.472;2024-03-08T09:09:19;13.75;9.50;7.00
76238;PMS7003;65043;48.392;-4.472;2024-03-08T09:11:47;11.50;7.50;5.75
76238;PMS7003;65043;48.392;-4.472;2024-03-08T09:14:12;15.75;10.75;7.00
76238;PMS7003;65043;48.392;-4.472;2024-03-08T09:16:37;2.75;1.75;0.75
76238;PMS7003;65043;48.392;-4.472;2024-03-08T09:19:03;8.00;8.00;6.00
76238;PMS7003;65043;48.392;-4.472;2024-03-08T09:21:30;8.00;7.50;6.00
76238;PMS7003;65043;48.392;-4.472;2024-03-08T09:23:56;11.50;9.50;7.00
76238;PMS7003;65043;48.392;-4.472;2024-03-08T09:26:23;14.00;10.00;7.25
76238;PMS7003;65043;48.392;-4.472;2024-03-08T09:28:49;8.50;8.00;5.75
76238;PMS7003;65043;48.392;-4.472;2024-03-08T09:31:15;10.00;8.00;6.50
76238;PMS7003;65043;48.392;-4.472;2024-03-08T09:33:41;15.25;11.00;7.00
76238;PMS7003;65043;48.392;-4.472;2024-03-08T09:36:08;9.00;8.00;6.00
76238;PMS7003;65043;48.392;-4.472;2024-03-08T09:38:34;10.00;7.50;5.50
76238;PMS7003;65043;48.392;-4.472;2024-03-08T09:41:02;10.50;8.50;7.00
76238;PMS7003;65043;48.392;-4.472;2024-03-08T09:43:29;8.50;8.00;5.00
76238;PMS7003;65043;48.392;-4.472;2024-03-08T09:45:55;9.00;8.00;6.00
76238;PMS7003;65043;48.392;-4.472;2024-03-08T09:48:23;13.00;8.75;6.25
76238;PMS7003;65043;48.392;-4.472;2024-03-08T09:50:49;7.75;4.00;3.00
76238;PMS7003;65043;48.392;-4.472;2024-03-08T09:53:14;9.00;7.50;6.00
76238;PMS7003;65043;48.392;-4.472;2024-03-08T09:55:41;9.25;8.75;6.00
76238;PMS7003;65043;48.392;-4.472;2024-03-08T09:58:13;8.25;8.25;6.00
76238;PMS7003;65043;48.392;-4.472;2024-03-08T10:01:07;9.50;7.50;5.75
76238;PMS7003;65043;48.392;-4.472;2024-03-08T10:03:33;6.50;6.50;5.50
76238;PMS7003;65043;48.392;-4.472;2024-03-08T10:05:59;9.75;9.50;6.50
76238;PMS7003;65043;48.392;-4.472;2024-03-08T10:08:28;8.00;8.00;5.00
76238;PMS7003;65043;48.392;-4.472;2024-03-08T10:10:55;125.50;105.75;64.50
76238;PMS7003;65043;48.392;-4.472;2024-03-08T10:13:23;49.25;40.50;25.00
76238;PMS7003;65043;48.392;-4.472;2024-03-08T10:15:50;54.25;42.00;25.75
76238;PMS7003;65043;48.392;-4.472;2024-03-08T10:18:16;77.50;60.25;35.25
76238;PMS7003;65043;48.392;-4.472;2024-03-08T10:20:42;70.50;54.25;33.75
76238;PMS7003;65043;48.392;-4.472;2024-03-08T10:23:08;39.75;34.50;23.00
76238;PMS7003;65043;48.392;-4.472;2024-03-08T10:25:35;25.00;19.75;13.00
76238;PMS7003;65043;48.392;-4.472;2024-03-08T10:28:04;12.50;12.50;8.00
76238;PMS7003;65043;48.392;-4.472;2024-03-08T10:30:30;15.50;12.00;8.00
76238;PMS7003;65043;48.392;-4.472;2024-03-08T10:32:55;11.50;9.75;6.75
76238;PMS7003;65043;48.392;-4.472;2024-03-08T10:35:21;10.75;7.50;5.75
76238;PMS7003;65043;48.392;-4.472;2024-03-08T10:37:50;9.75;7.50;5.75
76238;PMS7003;65043;48.392;-4.472;2024-03-08T10:40:25;12.25;7.75;6.00
76238;PMS7003;65043;48.392;-4.472;2024-03-08T10:45:37;12.50;9.00;6.00
76238;PMS7003;65043;48.392;-4.472;2024-03-08T10:50:42;9.75;9.75;8.50
76238;PMS7003;65043;48.392;-4.472;2024-03-08T10:53:11;9.00;8.00;6.50
76238;PMS7003;65043;48.392;-4.472;2024-03-08T10:55:39;11.00;10.00;7.00
76238;PMS7003;65043;48.392;-4.472;2024-03-08T10:58:06;10.75;9.00;7.00
76238;PMS7003;65043;48.392;-4.472;2024-03-08T11:00:33;16.50;10.00;7.00
76238;PMS7003;65043;48.392;-4.472;2024-03-08T11:02:59;8.00;8.00;6.00
76238;PMS7003;65043;48.392;-4.472;2024-03-08T11:05:58;11.50;10.00;6.75
76238;PMS7003;65043;48.392;-4.472;2024-03-08T11:10:49;7.75;7.75;5.00
76238;PMS7003;65043;48.392;-4.472;2024-03-08T11:13:34;10.00;9.00;7.75
76238;PMS7003;65043;48.392;-4.472;2024-03-08T11:16:11;13.25;11.00;7.75
76238;PMS7003;65043;48.392;-4.472;2024-03-08T11:19:01;12.50;11.50;6.00
76238;PMS7003;65043;48.392;-4.472;2024-03-08T11:21:32;9.25;9.00;7.00
76238;PMS7003;65043;48.392;-4.472;2024-03-08T11:24:02;8.25;8.00;5.25
76238;PMS7003;65043;48.392;-4.472;2024-03-08T11:26:33;11.50;9.00;6.00
76238;PMS7003;65043;48.392;-4.472;2024-03-08T11:32:11;8.25;7.25;6.00
76238;PMS7003;65043;48.392;-4.472;2024-03-08T11:34:40;10.25;8.50;6.50
76238;PMS7003;65043;48.392;-4.472;2024-03-08T11:37:21;8.00;8.00;6.00
76238;PMS7003;65043;48.392;-4.472;2024-03-08T11:39:53;8.50;8.00;5.75
76238;PMS7003;65043;48.392;-4.472;2024-03-08T11:42:29;7.50;7.25;6.00
76238;PMS7003;65043;48.392;-4.472;2024-03-08T11:44:55;7.25;7.25;5.00
76238;PMS7003;65043;48.392;-4.472;2024-03-08T11:47:21;8.00;6.25;5.00
76238;PMS7003;65043;48.392;-4.472;2024-03-08T11:49:47;5.25;4.50;4.00
76238;PMS7003;65043;48.392;-4.472;2024-03-08T11:52:17;6.75;6.75;5.00
76238;PMS7003;65043;48.392;-4.472;2024-03-08T11:54:53;10.75;8.50;6.00
76238;PMS7003;65043;48.392;-4.472;2024-03-08T11:57:21;7.00;6.00;5.00
76238;PMS7003;65043;48.392;-4.472;2024-03-08T11:59:53;7.25;7.00;5.00
76238;PMS7003;65043;48.392;-4.472;2024-03-08T12:02:21;9.50;6.00;4.25
76238;PMS7003;65043;48.392;-4.472;2024-03-08T12:04:50;7.75;5.00;4.00
76238;PMS7003;65043;48.392;-4.472;2024-03-08T12:07:21;9.00;8.00;5.25
76238;PMS7003;65043;48.392;-4.472;2024-03-08T12:10:13;154.75;135.75;74.25
76238;PMS7003;65043;48.392;-4.472;2024-03-08T12:12:42;175.75;146.50;80.75
76238;PMS7003;65043;48.392;-4.472;2024-03-08T12:15:09;102.25;92.00;53.00
76238;PMS7003;65043;48.392;-4.472;2024-03-08T12:17:36;94.75;82.25;46.75
76238;PMS7003;65043;48.392;-4.472;2024-03-08T12:20:20;61.00;45.25;28.50
76238;PMS7003;65043;48.392;-4.472;2024-03-08T12:22:47;30.00;29.00;18.50
76238;PMS7003;65043;48.392;-4.472;2024-03-08T12:25:14;12.50;12.50;8.75
76238;PMS7003;65043;48.392;-4.472;2024-03-08T12:27:40;11.25;8.75;7.00
76238;PMS7003;65043;48.392;-4.472;2024-03-08T12:30:17;16.00;11.25;8.50
76238;PMS7003;65043;48.392;-4.472;2024-03-08T12:32:58;10.75;9.75;7.00
76238;PMS7003;65043;48.392;-4.472;2024-03-08T12:35:29;10.75;10.00;7.75
76238;PMS7003;65043;48.392;-4.472;2024-03-08T12:37:57;12.00;9.00;7.00
76238;PMS7003;65043;48.392;-4.472;2024-03-08T12:40:31;7.25;7.25;6.00
76238;PMS7003;65043;48.392;-4.472;2024-03-08T12:42:59;8.75;8.75;5.75
76238;PMS7003;65043;48.392;-4.472;2024-03-08T12:45:25;8.75;8.00;6.25
76238;PMS7003;65043;48.392;-4.472;2024-03-08T12:47:52;11.25;7.50;6.00
76238;PMS7003;65043;48.392;-4.472;2024-03-08T12:50:19;7.25;6.75;5.00
76238;PMS7003;65043;48.392;-4.472;2024-03-08T12:52:45;9.25;7.00;5.00
76238;PMS7003;65043;48.392;-4.472;2024-03-08T12:55:10;7.75;7.75;5.50
76238;PMS7003;65043;48.392;-4.472;2024-03-08T12:57:37;8.25;7.75;5.75
76238;PMS7003;65043;48.392;-4.472;2024-03-08T13:00:02;6.75;6.75;5.00
76238;PMS7003;65043;48.392;-4.472;2024-03-08T13:02:29;9.25;7.75;6.75
76238;PMS7003;65043;48.392;-4.472;2024-03-08T13:04:57;9.25;8.25;5.00
76238;PMS7003;65043;48.392;-4.472;2024-03-08T13:07:23;6.25;6.25;4.25
76238;PMS7003;65043;48.392;-4.472;2024-03-08T13:09:53;6.50;5.00;4.00
76238;PMS7003;65043;48.392;-4.472;2024-03-08T13:12:20;5.25;5.00;4.00
76238;PMS7003;65043;48.392;-4.472;2024-03-08T13:14:46;6.25;4.75;4.00
76238;PMS7003;65043;48.392;-4.472;2024-03-08T13:17:12;4.00;2.50;2.00
76238;PMS7003;65043;48.392;-4.472;2024-03-08T13:19:38;3.00;2.25;2.00
76238;PMS7003;65043;48.392;-4.472;2024-03-08T13:22:04;3.25;3.25;2.00
76238;PMS7003;65043;48.392;-4.472;2024-03-08T13:24:30;5.25;4.00;2.00
76238;PMS7003;65043;48.392;-4.472;2024-03-08T13:26:55;6.25;3.00;2.00
76238;PMS7003;65043;48.392;-4.472;2024-03-08T13:29:21;2.25;2.25;2.00
76238;PMS7003;65043;48.392;-4.472;2024-03-08T13:31:47;2.25;2.25;1.00
76238;PMS7003;65043;48.392;-4.472;2024-03-08T13:34:16;8.25;2.25;2.00
76238;PMS7003;65043;48.392;-4.472;2024-03-08T13:36:52;4.00;4.00;3.00
76238;PMS7003;65043;48.392;-4.472;2024-03-08T13:39:19;4.50;4.00;3.00
76238;PMS7003;65043;48.392;-4.472;2024-03-08T13:41:46;6.75;4.25;3.00
76238;PMS7003;65043;48.392;-4.472;2024-03-08T13:44:11;1.25;1.25;1.00
76238;PMS7003;65043;48.392;-4.472;2024-03-08T13:46:37;1.75;1.75;1.00
76238;PMS7003;65043;48.392;-4.472;2024-03-08T13:49:04;4.00;3.00;2.00
76238;PMS7003;65043;48.392;-4.472;2024-03-08T13:51:33;2.00;2.00;2.00
76238;PMS7003;65043;48.392;-4.472;2024-03-08T13:53:58;5.00;2.75;1.00
76238;PMS7003;65043;48.392;-4.472;2024-03-08T13:56:25;33.25;29.25;19.00
76238;PMS7003;65043;48.392;-4.472;2024-03-08T13:58:51;72.00;51.75;31.75
76238;PMS7003;65043;48.392;-4.472;2024-03-08T14:01:17;92.25;83.25;48.25
76238;PMS7003;65043;48.392;-4.472;2024-03-08T14:03:42;66.00;51.00;32.25
76238;PMS7003;65043;48.392;-4.472;2024-03-08T14:06:08;50.75;40.50;26.00
76238;PMS7003;65043;48.392;-4.472;2024-03-08T14:08:35;37.00;31.50;18.50
76238;PMS7003;65043;48.392;-4.472;2024-03-08T14:11:03;6.50;4.00;2.75
76238;PMS7003;65043;48.392;-4.472;2024-03-08T14:13:36;2.75;2.75;2.00
76238;PMS7003;65043;48.392;-4.472;2024-03-08T14:16:07;4.00;4.00;2.00